Date,TemperatureHighF,TemperatureAvgF,TemperatureLowF,DewpointHighF,DewpointAvgF,DewpointLowF,HumidityHigh,HumidityAvg,HumidityLow,PressureMaxIn,PressureMinIn,WindSpeedMaxMPH,WindSpeedAvgMPH,GustSpeedMaxMPH,PrecipitationSumIn
2013-1-11,42,42,42,42,41,41,98,98,98,29.70,29.68,18,9,20,0.08
2013-1-12,46,33,21,42,28,14,98,80,71,30.13,29.67,34,11,34,0.00
2013-1-13,21,16,11,15,9,5,80,75,66,30.36,30.05,23,6,23,0.00
2013-1-14,23,14,7,12,8,3,92,76,61,30.60,30.35,18,4,18,0.00
2013-1-15,30,20,10,18,14,7,90,76,53,30.57,30.17,26,6,26,0.00
2013-1-16,32,26,20,30,20,12,94,78,67,30.23,29.86,29,10,29,0.00
2013-1-17,24,17,10,14,7,2,83,65,48,30.55,30.23,20,4,20,0.00
2013-1-18,41,28,8,34,23,4,89,80,70,30.56,29.91,36,9,36,0.01
2013-1-19,46,35,11,35,28,0,90,75,47,30.08,29.70,44,9,44,0.00
2013-1-20,14,9,5,1,-1,-2,73,64,51,30.44,30.08,34,6,34,0.00
2013-1-21,8,0,-6,1,-8,-14,79,66,54,30.47,30.30,31,6,31,0.00
2013-1-22,5,-2,-8,-5,-10,-14,77,69,54,30.55,30.46,19,3,19,0.00
2013-1-23,10,5,1,4,-1,-6,77,73,70,30.48,30.38,11,4,11,0.00
2013-1-24,14,10,-1,10,2,-6,86,70,60,30.85,30.52,12,1,12,0.00
2013-1-25,22,18,12,17,13,8,88,81,64,30.52,30.07,23,7,23,0.00
2013-1-26,23,15,4,15,9,0,88,78,65,30.56,30.35,19,3,19,0.00
2013-1-27,33,28,23,32,23,15,96,84,69,30.48,29.98,20,8,20,0.00
2013-1-28,35,33,31,33,32,30,97,96,93,30.06,29.89,14,3,14,0.27
2013-1-29,49,39,33,49,39,32,99,98,95,29.90,29.61,21,5,21,0.83
2013-1-30,34,26,15,34,25,12,98,95,89,29.71,29.45,22,4,22,0.02
2013-1-31,15,9,0,12,5,-4,89,83,76,30.28,29.71,21,5,21,0.00